Time;durP1;ratioP1;P1;durP2;ratioP2;P2;SDS_P1;SDS_P2;PMS_P1;PMS_P2;Temp;Humidity;BMP_temperature;BMP_pressure;BME280_temperature;BME280_humidity;BME280_pressure;Samples;Min_cycle;Max_cycle;Signal;HPM_P1;HPM_P2
2023/02/22 00:00:41;;;;;;;95.68;35.20;;;8.60;99.90;;;;;;5025938;28;20081;-65
2023/02/22 00:03:00;;;;;;;93.53;35.28;;;8.60;99.90;;;;;;5010474;28;20053;-66
2023/02/22 00:05:27;;;;;;;94.57;35.60;;;8.70;99.90;;;;;;5014612;28;20097;-66
2023/02/22 00:07:59;;;;;;;96.07;34.00;;;8.70;99.90;;;;;;5026607;28;20175;-65
2023/02/22 00:10:24;;;;;;;109.97;36.38;;;8.70;99.90;;;;;;5013036;28;20133;-65
2023/02/22 00:12:52;;;;;;;86.00;32.90;;;8.60;99.90;;;;;;5012530;28;20045;-73
2023/02/22 00:15:21;;;;;;;101.05;35.90;;;8.60;99.90;;;;;;5007645;28;20550;-65
2023/02/22 00:17:47;;;;;;;90.93;34.78;;;8.60;99.90;;;;;;5008520;28;20045;-66
2023/02/22 00:20:16;;;;;;;95.07;34.30;;;8.60;99.90;;;;;;5008191;28;20459;-74
2023/02/22 00:22:47;;;;;;;100.93;33.92;;;8.60;99.90;;;;;;4976603;28;20103;-65
2023/02/22 00:25:16;;;;;;;100.32;33.85;;;8.60;99.90;;;;;;5023678;28;20510;-78
2023/02/22 00:27:42;;;;;;;92.13;32.95;;;8.60;99.90;;;;;;5008836;28;20054;-65
2023/02/22 00:30:17;;;;;;;103.47;33.75;;;8.60;99.90;;;;;;5013624;28;20397;-65
2023/02/22 00:32:47;;;;;;;97.00;32.22;;;8.60;99.90;;;;;;5011585;28;20451;-66
2023/02/22 00:35:15;;;;;;;87.30;31.48;;;8.60;99.90;;;;;;5009069;28;20038;-65
2023/02/22 00:37:41;;;;;;;95.20;31.20;;;8.60;99.90;;;;;;5007998;28;20053;-65
2023/02/22 00:40:13;;;;;;;99.63;32.60;;;8.60;99.90;;;;;;5008963;28;20034;-77
2023/02/22 00:42:39;;;;;;;101.32;32.72;;;8.60;99.90;;;;;;5009030;28;20049;-73
2023/02/22 00:45:06;;;;;;;98.88;32.65;;;8.60;99.90;;;;;;5007754;28;20111;-89
2023/02/22 00:47:32;;;;;;;92.32;29.85;;;8.60;99.90;;;;;;5012744;28;20049;-65
2023/02/22 00:49:59;;;;;;;94.00;30.08;;;8.50;99.90;;;;;;5012508;28;20045;-65
2023/02/22 00:52:25;;;;;;;102.38;30.60;;;8.50;99.90;;;;;;5013279;28;20053;-87
2023/02/22 00:54:50;;;;;;;91.47;29.60;;;8.50;99.90;;;;;;4989747;28;20132;-65
2023/02/22 00:57:18;;;;;;;86.38;27.92;;;8.50;99.90;;;;;;5023966;28;20042;-65
2023/02/22 00:59:43;;;;;;;93.32;29.45;;;8.50;99.90;;;;;;4970612;28;20057;-65
2023/02/22 01:02:09;;;;;;;84.63;26.52;;;8.50;99.90;;;;;;5014442;28;20038;-65
2023/02/22 01:04:35;;;;;;;89.25;27.90;;;8.50;99.90;;;;;;5009296;28;20052;-65
2023/02/22 01:07:00;;;;;;;80.30;27.60;;;8.50;99.90;;;;;;5008860;28;20046;-67
2023/02/22 01:09:26;;;;;;;91.43;28.55;;;8.50;99.90;;;;;;5009088;28;20092;-65
2023/02/22 01:11:56;;;;;;;83.13;28.38;;;8.50;99.90;;;;;;5007218;28;20045;-72
2023/02/22 01:14:25;;;;;;;84.20;28.50;;;8.50;99.90;;;;;;5007124;28;20077;-65
2023/02/22 01:16:55;;;;;;;90.78;27.70;;;8.50;99.90;;;;;;5008215;28;20334;-65
2023/02/22 01:19:21;;;;;;;;;;;8.50;99.90;;;;;;5007401;28;20057;-67
2023/02/22 01:21:48;;;;;;;83.00;28.33;;;8.50;99.90;;;;;;5027088;28;20023;-65
2023/02/22 01:24:15;;;;;;;83.20;28.58;;;8.50;99.90;;;;;;5007173;28;20054;-65
2023/02/22 01:26:42;;;;;;;76.78;27.23;;;8.60;99.90;;;;;;5008320;28;20054;-69
2023/02/22 01:29:14;;;;;;;83.47;27.92;;;8.50;99.90;;;;;;5005982;28;20128;-69
2023/02/22 01:31:42;;;;;;;80.75;28.38;;;8.50;99.90;;;;;;5009024;28;20065;-65
2023/02/22 01:34:09;;;;;;;74.38;26.98;;;8.50;99.90;;;;;;5007364;28;20072;-66
2023/02/22 01:36:35;;;;;;;75.03;27.02;;;8.50;99.90;;;;;;5008092;28;20037;-65
2023/02/22 01:39:02;;;;;;;79.32;28.35;;;8.50;99.90;;;;;;5007744;28;20504;-65
2023/02/22 01:41:27;;;;;;;62.55;25.63;;;8.50;99.90;;;;;;5008470;28;20080;-65
2023/02/22 01:43:53;;;;;;;81.85;27.27;;;8.50;99.90;;;;;;5007114;28;20046;-65
2023/02/22 01:46:22;;;;;;;79.72;28.45;;;8.50;99.90;;;;;;5006019;28;20046;-65
2023/02/22 01:48:51;;;;;;;79.38;27.17;;;8.40;99.90;;;;;;5008700;28;20053;-65
2023/02/22 01:51:45;;;;;;;68.68;26.52;;;8.50;99.90;;;;;;5030799;28;20144;-68
2023/02/22 01:54:16;;;;;;;71.38;27.50;;;8.50;99.90;;;;;;4999817;28;20057;-65
2023/02/22 01:56:54;;;;;;;70.78;25.33;;;8.40;99.90;;;;;;5028066;28;20064;-65
2023/02/22 01:59:22;;;;;;;75.15;26.58;;;8.40;99.90;;;;;;5005829;28;20045;-65
2023/02/22 02:01:48;;;;;;;71.55;26.35;;;8.40;99.90;;;;;;5008648;28;20479;-65
2023/02/22 02:04:24;;;;;;;77.05;26.73;;;8.40;99.90;;;;;;5018626;28;20081;-65
2023/02/22 02:06:52;;;;;;;70.25;25.58;;;8.40;99.90;;;;;;5016577;28;20116;-65
2023/02/22 02:09:33;;;;;;;70.35;25.88;;;8.40;99.90;;;;;;5006753;28;20038;-65
2023/02/22 02:12:01;;;;;;;66.95;26.42;;;8.40;99.90;;;;;;5006459;28;20533;-66
2023/02/22 02:14:31;;;;;;;68.07;25.67;;;8.40;99.90;;;;;;5022562;28;20053;-65
2023/02/22 02:17:00;;;;;;;65.05;26.02;;;8.40;99.90;;;;;;5007117;28;20108;-65
2023/02/22 02:19:56;;;;;;;70.20;25.75;;;8.40;99.90;;;;;;5006174;28;20037;-65
2023/02/22 02:22:30;;;;;;;58.92;23.60;;;8.40;99.90;;;;;;5007635;28;20068;-65
2023/02/22 02:24:59;;;;;;;73.03;24.98;;;8.30;99.90;;;;;;5008668;28;20559;-65
2023/02/22 02:27:35;;;;;;;60.28;24.48;;;8.30;99.90;;;;;;5008443;28;20092;-65
2023/02/22 02:30:05;;;;;;;63.20;24.42;;;8.30;99.90;;;;;;5006373;28;20565;-64
2023/02/22 02:32:48;;;;;;;58.33;24.20;;;8.30;99.90;;;;;;5007720;28;20052;-65
2023/02/22 02:35:20;;;;;;;56.88;23.75;;;8.30;99.90;;;;;;5006748;28;20050;-65
2023/02/22 02:37:51;;;;;;;54.47;23.58;;;8.30;99.90;;;;;;5005948;28;20070;-65
2023/02/22 02:40:26;;;;;;;62.80;25.25;;;8.30;99.90;;;;;;5008170;28;20077;-66
2023/02/22 02:42:59;;;;;;;59.72;24.73;;;8.30;99.90;;;;;;5006998;28;20104;-65
2023/02/22 02:45:36;;;;;;;64.65;24.38;;;8.20;99.90;;;;;;5006347;28;20088;-66
2023/02/22 02:48:06;;;;;;;59.33;23.88;;;8.30;99.90;;;;;;5006258;28;20129;-82
2023/02/22 02:50:52;;;;;;;;;;;8.30;99.90;;;;;;5014620;28;20050;-71
2023/02/22 02:53:26;;;;;;;58.92;24.60;;;8.30;99.90;;;;;;5015302;28;19925;-65
2023/02/22 02:55:51;;;;;;;58.67;23.48;;;8.30;99.90;;;;;;5010079;28;20435;-66
2023/02/22 02:58:20;;;;;;;57.60;23.58;;;8.30;99.90;;;;;;5009874;28;20068;-65
2023/02/22 03:00:48;;;;;;;50.47;21.27;;;8.20;99.90;;;;;;5010716;28;20045;-64
2023/02/22 03:03:20;;;;;;;59.70;24.17;;;8.30;99.90;;;;;;5021168;28;20060;-66
2023/02/22 03:05:58;;;;;;;50.30;22.38;;;8.30;99.90;;;;;;5026804;28;20045;-65
2023/02/22 03:08:44;;;;;;;56.67;23.85;;;8.20;99.90;;;;;;5007641;28;20071;-66
2023/02/22 03:11:16;;;;;;;53.58;23.55;;;8.20;99.90;;;;;;5011230;28;20037;-65
2023/02/22 03:13:54;;;;;;;51.95;22.17;;;8.20;99.90;;;;;;5009999;28;20233;-65
2023/02/22 03:16:38;;;;;;;55.03;22.48;;;8.20;99.90;;;;;;5010561;28;20046;-66
2023/02/22 03:19:36;;;;;;;51.28;21.45;;;8.20;99.90;;;;;;5009477;28;20061;-65
2023/02/22 03:22:08;;;;;;;51.25;21.98;;;8.20;99.90;;;;;;4996467;28;20587;-65
2023/02/22 03:24:54;;;;;;;49.75;20.98;;;8.20;99.90;;;;;;5021429;28;20077;-65
2023/02/22 03:27:26;;;;;;;47.90;20.10;;;8.20;99.90;;;;;;5021834;28;20067;-65
2023/02/22 03:29:59;;;;;;;51.85;21.10;;;8.20;99.90;;;;;;5027384;28;20073;-65
2023/02/22 03:32:32;;;;;;;50.00;20.38;;;8.20;99.90;;;;;;5028993;28;20064;-65
2023/02/22 03:35:05;;;;;;;51.30;22.05;;;8.20;99.90;;;;;;5018078;28;20132;-65
2023/02/22 03:37:39;;;;;;;48.28;20.67;;;8.20;99.90;;;;;;5009643;28;20053;-66
2023/02/22 03:40:15;;;;;;;46.17;21.13;;;8.20;99.90;;;;;;5010551;28;20124;-66
2023/02/22 03:42:52;;;;;;;46.33;20.55;;;8.20;99.90;;;;;;5006941;28;20071;-65
2023/02/22 03:45:20;;;;;;;43.65;19.48;;;8.10;99.90;;;;;;5019515;28;20080;-65
2023/02/22 03:47:50;;;;;;;44.80;19.80;;;8.20;99.90;;;;;;5015504;28;20516;-65
2023/02/22 03:50:20;;;;;;;47.05;20.02;;;8.10;99.90;;;;;;5012129;28;20088;-65
2023/02/22 03:52:46;;;;;;;42.67;19.80;;;8.10;99.90;;;;;;5009646;28;20049;-65
2023/02/22 03:55:14;;;;;;;45.38;19.60;;;8.10;99.90;;;;;;5017970;28;20069;-65
2023/02/22 03:57:47;;;;;;;48.60;20.65;;;8.10;99.90;;;;;;5018891;28;20058;-67
2023/02/22 04:00:17;;;;;;;42.83;19.98;;;8.10;99.90;;;;;;5008644;28;20050;-65
2023/02/22 04:02:43;;;;;;;;;;;8.10;99.90;;;;;;5010896;28;20046;-65
2023/02/22 04:05:09;;;;;;;42.95;21.23;;;8.10;99.90;;;;;;5011723;28;19925;-68
2023/02/22 04:07:35;;;;;;;49.90;22.00;;;8.10;99.90;;;;;;5008053;28;20085;-67
2023/02/22 04:10:07;;;;;;;45.78;21.45;;;8.10;99.90;;;;;;5009515;28;20045;-73
2023/02/22 04:12:33;;;;;;;49.88;20.80;;;8.10;99.90;;;;;;5008198;28;20077;-65
2023/02/22 04:14:59;;;;;;;48.85;21.45;;;8.10;99.90;;;;;;5010505;28;20052;-71
2023/02/22 04:17:25;;;;;;;48.15;21.42;;;8.10;99.90;;;;;;5007999;28;20041;-65
2023/02/22 04:19:50;;;;;;;50.08;22.30;;;8.10;99.90;;;;;;5008145;28;20264;-65
2023/02/22 04:22:16;;;;;;;51.30;21.35;;;8.10;99.90;;;;;;5008047;28;20038;-69
2023/02/22 04:24:42;;;;;;;47.05;21.02;;;8.10;99.90;;;;;;5024816;28;20049;-65
2023/02/22 04:27:08;;;;;;;45.60;20.65;;;8.10;99.90;;;;;;5015982;28;20046;-83
2023/02/22 04:29:34;;;;;;;47.22;21.58;;;8.10;99.90;;;;;;5009891;28;20120;-65
2023/02/22 04:31:59;;;;;;;43.35;21.02;;;8.00;99.90;;;;;;5020566;28;20115;-65
2023/02/22 04:34:25;;;;;;;46.58;20.48;;;8.00;99.90;;;;;;5021691;28;20033;-65
2023/02/22 04:36:51;;;;;;;42.75;19.98;;;8.10;99.90;;;;;;5021434;28;20089;-66
2023/02/22 04:39:17;;;;;;;45.17;20.77;;;8.00;99.90;;;;;;5011641;28;20100;-74
2023/02/22 04:41:42;;;;;;;45.08;20.20;;;8.00;99.90;;;;;;5019883;28;20378;-66
2023/02/22 04:44:08;;;;;;;36.85;19.02;;;8.00;99.90;;;;;;5019434;28;20040;-65
2023/02/22 04:46:34;;;;;;;43.72;19.65;;;8.00;99.90;;;;;;5014901;28;20049;-65
2023/02/22 04:49:00;;;;;;;42.88;20.52;;;8.00;99.90;;;;;;5026093;28;20124;-72
2023/02/22 04:51:25;;;;;;;43.00;19.92;;;8.00;99.90;;;;;;5021874;28;20041;-71
2023/02/22 04:53:51;;;;;;;47.38;20.35;;;8.00;99.90;;;;;;5017279;28;20045;-65
2023/02/22 04:56:17;;;;;;;48.00;20.83;;;8.00;99.90;;;;;;5012451;28;20512;-65
2023/02/22 04:58:43;;;;;;;46.95;19.80;;;8.00;99.90;;;;;;5013513;28;20127;-72
2023/02/22 05:01:09;;;;;;;45.38;20.23;;;8.00;99.90;;;;;;5010598;28;20488;-65
2023/02/22 05:03:38;;;;;;;44.15;19.75;;;8.00;99.90;;;;;;5024181;28;20045;-84
2023/02/22 05:06:04;;;;;;;41.80;20.83;;;8.00;99.90;;;;;;5025767;28;20049;-65
2023/02/22 05:08:29;;;;;;;49.65;21.70;;;8.00;99.90;;;;;;5005409;28;20079;-65
2023/02/22 05:10:55;;;;;;;48.25;21.40;;;8.00;99.90;;;;;;5011121;28;20046;-80
2023/02/22 05:13:21;;;;;;;44.15;21.08;;;8.00;99.90;;;;;;5006769;28;20514;-66
2023/02/22 05:15:47;;;;;;;48.90;20.70;;;8.00;99.90;;;;;;5008590;28;20117;-66
2023/02/22 05:18:13;;;;;;;47.35;21.70;;;8.00;99.90;;;;;;5012699;28;20125;-65
2023/02/22 05:20:39;;;;;;;47.10;21.17;;;8.00;99.90;;;;;;5013244;28;20080;-65
2023/02/22 05:23:05;;;;;;;46.25;21.58;;;8.00;99.90;;;;;;5021763;28;20096;-75
2023/02/22 05:25:32;;;;;;;47.35;21.63;;;8.00;99.90;;;;;;5007789;28;20497;-79
2023/02/22 05:28:02;;;;;;;50.65;22.05;;;8.00;99.90;;;;;;5008372;28;20149;-85
2023/02/22 05:30:33;;;;;;;50.65;22.45;;;8.00;99.90;;;;;;5016849;28;20141;-65
2023/02/22 05:32:59;;;;;;;45.65;20.77;;;7.90;99.90;;;;;;5010167;28;20413;-65
2023/02/22 05:35:26;;;;;;;47.17;20.63;;;8.00;99.90;;;;;;5010907;28;20042;-65
2023/02/22 05:37:52;;;;;;;51.08;21.83;;;7.90;99.90;;;;;;5011276;28;20060;-65
2023/02/22 05:40:20;;;;;;;45.83;19.95;;;7.90;99.90;;;;;;5020376;28;20455;-66
2023/02/22 05:42:47;;;;;;;41.42;20.35;;;7.90;99.90;;;;;;5007860;28;20112;-65
2023/02/22 05:45:14;;;;;;;50.30;21.42;;;7.90;99.90;;;;;;5023254;28;20048;-67
2023/02/22 05:47:39;;;;;;;41.42;19.83;;;7.90;99.90;;;;;;5005731;28;20116;-65
2023/02/22 05:50:06;;;;;;;45.25;21.50;;;7.90;99.90;;;;;;5014031;28;20049;-65
2023/02/22 05:52:31;;;;;;;41.70;19.80;;;7.90;99.90;;;;;;5006447;28;20029;-65
2023/02/22 05:54:57;;;;;;;41.20;19.75;;;7.90;99.90;;;;;;5007948;28;20046;-65
2023/02/22 05:57:23;;;;;;;43.15;20.55;;;7.90;99.90;;;;;;5006680;28;20062;-65
2023/02/22 05:59:49;;;;;;;40.70;19.52;;;7.90;99.90;;;;;;5008618;28;20061;-67
2023/02/22 06:02:14;;;;;;;36.60;19.27;;;8.00;99.90;;;;;;5009170;28;20050;-65
2023/02/22 06:04:44;;;;;;;46.42;21.17;;;7.90;99.90;;;;;;5006744;28;20381;-65
2023/02/22 06:07:09;;;;;;;43.22;20.45;;;7.90;99.90;;;;;;5007813;28;20092;-70
2023/02/22 06:09:35;;;;;;;37.75;18.52;;;7.90;99.90;;;;;;5006550;28;20041;-70
2023/02/22 06:12:01;;;;;;;44.45;20.08;;;7.90;99.90;;;;;;5029777;28;20045;-65
2023/02/22 06:14:26;;;;;;;41.33;19.42;;;7.90;99.90;;;;;;5012160;28;20092;-65
2023/02/22 06:16:53;;;;;;;44.13;20.05;;;7.90;99.90;;;;;;5017268;28;20104;-66
2023/02/22 06:19:19;;;;;;;41.67;19.42;;;7.90;99.90;;;;;;5002827;28;20433;-64
2023/02/22 06:21:50;;;;;;;44.53;19.92;;;7.90;99.90;;;;;;5007465;28;20137;-65
2023/02/22 06:24:16;;;;;;;41.72;19.90;;;7.90;99.90;;;;;;5008218;28;20041;-65
2023/02/22 06:26:41;;;;;;;46.70;20.45;;;7.90;99.90;;;;;;5022718;28;20395;-65
2023/02/22 06:29:08;;;;;;;41.00;19.90;;;7.90;99.90;;;;;;5010388;28;20077;-65
2023/02/22 06:31:34;;;;;;;44.78;20.90;;;7.90;99.90;;;;;;5010481;28;20056;-65
2023/02/22 06:34:00;;;;;;;42.08;19.75;;;7.80;99.90;;;;;;5015452;28;20038;-65
2023/02/22 06:36:26;;;;;;;40.95;20.08;;;7.80;99.90;;;;;;5016108;28;20048;-65
2023/02/22 06:38:52;;;;;;;42.33;19.25;;;7.80;99.90;;;;;;5010858;28;20049;-65
2023/02/22 06:41:17;;;;;;;39.30;20.30;;;7.80;99.90;;;;;;5011778;28;20584;-65
2023/02/22 06:43:45;;;;;;;37.35;19.63;;;7.90;99.90;;;;;;5010511;28;20113;-65
2023/02/22 06:46:11;;;;;;;41.72;20.40;;;7.90;99.90;;;;;;5011126;28;20136;-65
2023/02/22 06:48:39;;;;;;;44.10;20.77;;;7.90;99.90;;;;;;5008280;28;20053;-69
2023/02/22 06:51:08;;;;;;;42.28;20.33;;;7.90;99.90;;;;;;5011130;28;20077;-65
2023/02/22 06:53:34;;;;;;;46.83;21.00;;;7.90;99.90;;;;;;5010475;28;20030;-67
2023/02/22 06:56:01;;;;;;;46.97;20.67;;;7.90;99.90;;;;;;5011708;28;20111;-66
2023/02/22 06:58:27;;;;;;;42.97;21.25;;;7.90;99.90;;;;;;5013985;28;20061;-66
2023/02/22 07:00:53;;;;;;;50.17;21.10;;;7.90;99.90;;;;;;5008762;28;20054;-69
2023/02/22 07:03:19;;;;;;;44.67;20.92;;;7.90;99.90;;;;;;5011276;28;20440;-66
2023/02/22 07:05:45;;;;;;;41.60;21.00;;;7.90;99.90;;;;;;5009708;28;20038;-80
2023/02/22 07:08:11;;;;;;;40.58;20.80;;;7.90;99.90;;;;;;5014548;28;20037;-67
2023/02/22 07:10:38;;;;;;;44.28;21.52;;;7.90;99.90;;;;;;5009205;28;20558;-74
2023/02/22 07:13:05;;;;;;;49.40;22.25;;;7.90;99.90;;;;;;5010941;28;20034;-65
2023/02/22 07:15:33;;;;;;;44.63;20.55;;;7.90;99.90;;;;;;5010943;28;20534;-77
2023/02/22 07:17:59;;;;;;;45.40;21.45;;;7.90;99.90;;;;;;5010192;28;20085;-71
2023/02/22 07:20:27;;;;;;;38.78;20.02;;;7.90;99.90;;;;;;5010916;28;20057;-65
2023/02/22 07:22:53;;;;;;;44.35;21.00;;;8.00;99.90;;;;;;5009769;28;20069;-66
2023/02/22 07:25:20;;;;;;;47.78;20.98;;;8.00;99.90;;;;;;5012568;28;20073;-65
2023/02/22 07:27:46;;;;;;;48.15;21.63;;;8.00;99.90;;;;;;5011296;28;20104;-65
2023/02/22 07:30:23;;;;;;;46.05;21.25;;;8.00;99.90;;;;;;5014139;28;20432;-65
2023/02/22 07:32:51;;;;;;;47.60;23.00;;;8.10;99.90;;;;;;5015120;28;20037;-68
2023/02/22 07:35:22;;;;;;;54.92;24.83;;;8.10;99.90;;;;;;5011823;28;20042;-66
2023/02/22 07:37:48;;;;;;;56.08;25.98;;;8.10;99.90;;;;;;5012216;28;20045;-65
2023/02/22 07:40:16;;;;;;;55.53;27.30;;;8.10;99.90;;;;;;5026144;28;20041;-65
2023/02/22 07:43:03;;;;;;;59.53;28.38;;;8.10;99.90;;;;;;5027785;28;20053;-69
2023/02/22 07:45:34;;;;;;;64.80;29.17;;;8.10;99.90;;;;;;5022435;28;20053;-76
2023/02/22 07:48:02;;;;;;;64.93;29.98;;;8.10;99.90;;;;;;5010766;28;20121;-65
2023/02/22 07:50:30;;;;;;;67.22;30.27;;;8.10;99.90;;;;;;5019149;28;20069;-69
2023/02/22 07:52:57;;;;;;;72.32;32.70;;;8.00;99.90;;;;;;5020582;28;20069;-72
2023/02/22 07:55:26;;;;;;;74.00;33.72;;;8.10;99.90;;;;;;5010967;28;20120;-70
2023/02/22 07:57:54;;;;;;;74.43;31.90;;;8.00;99.90;;;;;;5019169;28;20061;-76
2023/02/22 08:00:31;;;;;;;74.72;32.22;;;8.10;99.90;;;;;;5023147;28;20045;-77
2023/02/22 08:03:02;;;;;;;78.35;35.47;;;8.10;99.90;;;;;;5012321;28;20038;-65
2023/02/22 08:05:30;;;;;;;75.65;35.83;;;8.10;99.90;;;;;;5011673;28;20073;-76
2023/02/22 08:07:56;;;;;;;78.82;35.13;;;8.10;99.90;;;;;;5011263;28;20046;-65
2023/02/22 08:10:23;;;;;;;79.30;36.75;;;8.20;99.90;;;;;;5007358;28;20052;-78
2023/02/22 08:12:49;;;;;;;78.15;37.88;;;8.20;99.90;;;;;;5025038;28;20045;-81
2023/02/22 08:15:23;;;;;;;84.32;37.60;;;8.30;99.90;;;;;;5015663;28;20068;-86
2023/02/22 08:17:49;;;;;;;78.70;35.80;;;8.30;99.90;;;;;;5011637;28;20103;-65
2023/02/22 08:20:15;;;;;;;90.68;37.08;;;8.30;99.90;;;;;;5010720;28;20112;-65
2023/02/22 08:22:45;;;;;;;78.80;35.13;;;8.30;99.90;;;;;;5011248;28;20120;-78
2023/02/22 08:25:14;;;;;;;75.57;35.10;;;8.30;99.90;;;;;;5020242;28;20050;-65
2023/02/22 08:27:40;;;;;;;88.38;39.33;;;8.30;99.90;;;;;;5009112;28;20140;-65
2023/02/22 08:30:07;;;;;;;88.55;38.47;;;8.40;99.90;;;;;;5009592;28;20046;-65
2023/02/22 08:32:34;;;;;;;90.63;38.75;;;8.40;99.90;;;;;;5023881;28;20495;-65
2023/02/22 08:35:01;;;;;;;80.88;36.83;;;8.40;99.90;;;;;;5009403;28;20038;-65
2023/02/22 08:37:27;;;;;;;78.63;36.95;;;8.50;99.90;;;;;;5010743;28;20095;-65
2023/02/22 08:39:54;;;;;;;87.38;39.47;;;8.50;99.90;;;;;;5006991;28;20046;-65
2023/02/22 08:42:20;;;;;;;90.97;39.55;;;8.50;99.90;;;;;;5013117;28;20045;-84
2023/02/22 08:44:46;;;;;;;80.90;37.58;;;8.60;99.90;;;;;;5007830;28;20038;-81
2023/02/22 08:47:12;;;;;;;90.72;38.50;;;8.60;99.90;;;;;;5009214;28;20119;-65
2023/02/22 08:49:37;;;;;;;81.95;35.70;;;8.60;99.90;;;;;;5007470;28;20038;-80
2023/02/22 08:52:03;;;;;;;75.18;34.83;;;8.70;99.90;;;;;;5007432;28;20046;-81
2023/02/22 08:54:29;;;;;;;70.38;32.42;;;8.70;99.90;;;;;;5007899;28;20116;-85
2023/02/22 08:56:55;;;;;;;71.93;32.78;;;8.70;99.90;;;;;;5008980;28;20133;-65
2023/02/22 08:59:21;;;;;;;66.65;31.00;;;8.80;99.90;;;;;;5020821;28;20195;-82
2023/02/22 09:01:46;;;;;;;67.75;32.75;;;8.90;99.90;;;;;;5013408;28;20049;-84
2023/02/22 09:04:12;;;;;;;66.05;32.53;;;8.90;99.90;;;;;;5018971;28;20492;-86
2023/02/22 09:06:41;;;;;;;71.20;34.33;;;9.00;99.90;;;;;;4999691;28;20046;-81
2023/02/22 09:09:07;;;;;;;69.80;32.00;;;9.00;99.90;;;;;;5018685;28;20128;-73
2023/02/22 09:11:33;;;;;;;68.30;32.35;;;9.00;99.90;;;;;;5016012;28;20121;-65
2023/02/22 09:13:59;;;;;;;66.70;31.60;;;9.10;99.90;;;;;;5013193;28;20092;-65
2023/02/22 09:16:24;;;;;;;65.80;30.92;;;9.20;99.90;;;;;;5021101;28;20120;-67
2023/02/22 09:18:50;;;;;;;78.43;32.92;;;9.30;99.90;;;;;;5016598;28;20034;-67
2023/02/22 09:21:16;;;;;;;69.63;33.42;;;9.20;99.90;;;;;;5021627;28;20559;-79
2023/02/22 09:23:41;;;;;;;68.05;30.60;;;9.30;99.90;;;;;;5006694;28;20054;-65
2023/02/22 09:26:09;;;;;;;58.97;28.88;;;9.30;99.90;;;;;;5010295;28;20132;-76
2023/02/22 09:28:35;;;;;;;60.03;28.48;;;9.30;99.90;;;;;;5019046;28;20045;-77
2023/02/22 09:31:01;;;;;;;65.45;30.55;;;9.30;99.90;;;;;;5026170;28;20574;-79
2023/02/22 09:33:27;;;;;;;59.78;28.23;;;9.40;99.90;;;;;;5010396;28;20077;-86
2023/02/22 09:35:53;;;;;;;61.28;27.25;;;9.30;99.90;;;;;;5008527;28;20037;-65
2023/02/22 09:38:23;;;;;;;60.03;29.38;;;9.40;99.90;;;;;;5008907;28;20135;-87
2023/02/22 09:40:53;;;;;;;56.15;26.67;;;9.40;99.90;;;;;;5006657;28;20423;-65
2023/02/22 09:43:41;;;;;;;55.97;28.13;;;9.40;99.90;;;;;;5009312;28;20037;-90
2023/02/22 09:46:26;;;;;;;56.25;26.70;;;9.50;99.90;;;;;;5006427;28;20045;-85
2023/02/22 09:48:58;;;;;;;61.70;27.65;;;9.50;99.90;;;;;;5013925;28;20045;-88
2023/02/22 09:51:36;;;;;;;52.65;26.77;;;9.60;99.90;;;;;;5007978;28;20049;-64
2023/02/22 09:54:05;;;;;;;55.85;26.55;;;9.60;99.90;;;;;;5013179;28;20520;-64
2023/02/22 09:56:32;;;;;;;52.65;25.33;;;9.70;99.90;;;;;;5010388;28;20088;-81
2023/02/22 09:59:05;;;;;;;56.58;26.33;;;9.70;99.90;;;;;;5007869;28;20045;-65
2023/02/22 10:01:47;;;;;;;51.17;27.00;;;9.60;99.90;;;;;;5011258;28;20101;-64
2023/02/22 10:04:37;;;;;;;50.78;24.88;;;9.60;99.90;;;;;;5016462;28;20492;-68
2023/02/22 10:07:19;;;;;;;46.70;22.20;;;9.60;99.90;;;;;;5006648;28;20042;-77
2023/02/22 10:09:47;;;;;;;52.67;26.17;;;9.60;99.90;;;;;;5011133;28;20045;-64
2023/02/22 10:12:32;;;;;;;56.42;26.45;;;9.60;99.90;;;;;;5006307;28;20045;-64
2023/02/22 10:15:28;;;;;;;53.72;25.27;;;9.60;99.90;;;;;;5015209;28;20730;-84
2023/02/22 10:18:20;;;;;;;55.60;26.20;;;9.60;99.90;;;;;;5020537;28;20714;-64
2023/02/22 10:20:52;;;;;;;50.50;25.73;;;9.60;99.90;;;;;;5018072;28;20489;-65
2023/02/22 10:23:27;;;;;;;52.92;25.05;;;9.70;99.90;;;;;;5006527;28;20092;-72
2023/02/22 10:26:01;;;;;;;54.58;26.27;;;9.60;99.90;;;;;;5017898;28;20053;-64
2023/02/22 10:28:37;;;;;;;54.30;25.60;;;9.60;99.90;;;;;;5017647;28;20050;-64
2023/02/22 10:31:07;;;;;;;56.95;25.45;;;9.60;99.90;;;;;;5010635;28;20050;-64
2023/02/22 10:33:40;;;;;;;51.40;25.08;;;9.60;99.90;;;;;;5004052;28;20050;-73
2023/02/22 10:36:17;;;;;;;51.55;23.70;;;9.50;99.90;;;;;;5013654;28;20073;-65
2023/02/22 10:38:52;;;;;;;47.60;22.65;;;9.50;99.90;;;;;;5011769;28;20058;-64
2023/02/22 10:41:35;;;;;;;52.47;23.95;;;9.50;99.90;;;;;;5029852;28;20128;-75
2023/02/22 10:44:01;;;;;;;53.63;24.30;;;9.50;99.90;;;;;;5007840;28;20452;-64
2023/02/22 10:46:30;;;;;;;53.20;23.10;;;9.60;99.90;;;;;;5004637;28;20081;-64
2023/02/22 10:49:01;;;;;;;52.13;23.38;;;9.60;99.90;;;;;;5007233;28;20103;-65
2023/02/22 10:51:27;;;;;;;51.40;23.15;;;9.70;99.90;;;;;;5007481;28;20061;-64
2023/02/22 10:54:23;;;;;;;47.63;21.48;;;9.70;99.90;;;;;;5012813;28;20056;-64
2023/02/22 10:56:57;;;;;;;52.03;24.00;;;9.70;99.90;;;;;;5001458;28;20432;-64
2023/02/22 10:59:38;;;;;;;48.65;24.85;;;9.60;99.90;;;;;;4987746;28;20593;-64
2023/02/22 11:02:18;;;;;;;44.97;22.63;;;9.60;99.90;;;;;;5007283;28;20044;-67
2023/02/22 11:04:53;;;;;;;58.80;25.70;;;9.60;99.90;;;;;;5017511;28;20131;-64
2023/02/22 11:07:29;;;;;;;56.05;24.88;;;9.50;99.90;;;;;;5013259;28;20042;-64
2023/02/22 11:10:01;;;;;;;54.45;26.48;;;9.50;99.90;;;;;;5016938;28;20046;-65
2023/02/22 11:12:31;;;;;;;63.05;24.65;;;9.50;99.90;;;;;;5008769;28;20056;-69
2023/02/22 11:15:16;;;;;;;55.58;24.83;;;9.50;99.90;;;;;;5010063;28;20045;-65
2023/02/22 11:17:45;;;;;;;54.28;24.80;;;9.50;99.90;;;;;;5025387;28;20042;-64
2023/02/22 11:20:24;;;;;;;61.75;26.80;;;9.50;99.90;;;;;;5019171;28;20070;-65
2023/02/22 11:22:59;;;;;;;54.03;25.20;;;9.50;99.90;;;;;;5010424;28;20046;-73
2023/02/22 11:25:37;;;;;;;62.38;26.70;;;9.60;99.90;;;;;;5006504;28;20088;-85
2023/02/22 11:28:31;;;;;;;57.65;28.13;;;9.60;99.90;;;;;;5009809;28;20412;-64
2023/02/22 11:31:14;;;;;;;56.65;26.33;;;9.60;99.90;;;;;;5009908;28;20065;-64
2023/02/22 11:33:54;;;;;;;63.35;26.63;;;9.60;99.90;;;;;;5008467;28;20462;-64
2023/02/22 11:36:39;;;;;;;65.57;28.90;;;9.60;99.90;;;;;;5012501;28;20053;-64
2023/02/22 11:39:20;;;;;;;63.13;28.48;;;9.70;99.90;;;;;;5012506;28;20551;-64
2023/02/22 11:41:49;;;;;;;67.38;29.30;;;9.70;99.90;;;;;;5008537;28;20061;-81
2023/02/22 11:44:31;;;;;;;63.50;28.77;;;9.80;99.90;;;;;;5016302;28;20115;-74
2023/02/22 11:47:05;;;;;;;70.40;31.02;;;9.90;99.90;;;;;;5013126;28;20061;-82
2023/02/22 11:49:41;;;;;;;65.90;31.35;;;9.80;99.90;;;;;;5010210;28;20488;-64
2023/02/22 11:52:51;;;;;;;73.72;31.30;;;9.80;99.90;;;;;;5020244;28;20038;-64
2023/02/22 11:55:33;;;;;;;66.03;30.70;;;9.80;99.90;;;;;;5004502;28;20076;-64
2023/02/22 11:58:20;;;;;;;69.30;31.27;;;9.80;99.90;;;;;;5012744;28;20062;-64
2023/02/22 12:00:56;;;;;;;74.82;31.85;;;9.80;99.90;;;;;;5012242;28;20127;-64
2023/02/22 12:03:25;;;;;;;75.72;32.25;;;9.90;99.90;;;;;;5008701;28;20070;-64
2023/02/22 12:06:18;;;;;;;72.72;31.77;;;9.90;99.90;;;;;;5011925;28;20429;-64
2023/02/22 12:09:17;;;;;;;70.90;31.00;;;10.00;99.90;;;;;;5016788;28;20112;-64
2023/02/22 12:12:03;;;;;;;77.38;33.15;;;10.00;99.90;;;;;;5007257;28;20103;-64
2023/02/22 12:14:30;;;;;;;73.60;34.10;;;10.10;99.90;;;;;;5013439;28;20042;-64
2023/02/22 12:17:22;;;;;;;69.30;32.78;;;10.20;99.90;;;;;;5016789;28;20053;-64
2023/02/22 12:19:50;;;;;;;65.43;30.30;;;10.30;99.90;;;;;;5012542;28;20042;-66
2023/02/22 12:22:22;;;;;;;69.88;32.38;;;10.30;99.90;;;;;;5010944;28;20085;-64
2023/02/22 12:24:54;;;;;;;66.18;31.48;;;10.20;99.90;;;;;;5031862;28;20041;-64
2023/02/22 12:27:38;;;;;;;71.30;32.10;;;10.10;99.90;;;;;;5021540;28;20030;-64
2023/02/22 12:30:11;;;;;;;77.10;31.92;;;10.10;99.90;;;;;;5012899;28;20042;-64
2023/02/22 12:32:58;;;;;;;76.40;32.38;;;10.10;99.90;;;;;;5014033;28;20073;-68
2023/02/22 12:35:58;;;;;;;72.60;33.40;;;10.10;99.90;;;;;;5013448;28;20045;-64
2023/02/22 12:38:36;;;;;;;74.15;34.85;;;10.10;99.90;;;;;;4980751;28;20186;-65
2023/02/22 12:41:17;;;;;;;77.75;34.33;;;10.10;99.90;;;;;;5020749;28;20463;-64
2023/02/22 12:43:59;;;;;;;75.40;34.72;;;10.10;99.90;;;;;;5014978;28;20085;-64
2023/02/22 12:46:42;;;;;;;83.72;37.00;;;10.00;99.90;;;;;;5015474;28;20124;-65
2023/02/22 12:49:33;;;;;;;76.63;33.08;;;9.90;99.90;;;;;;5019609;28;20459;-64
2023/02/22 12:52:12;;;;;;;83.68;36.00;;;9.90;99.90;;;;;;5017381;28;20050;-70
2023/02/22 12:54:58;;;;;;;80.47;37.35;;;9.90;99.90;;;;;;5018964;28;20573;-63
2023/02/22 12:57:51;;;;;;;83.50;37.92;;;9.90;99.90;;;;;;5015585;28;20050;-64